Flight Track Log - Related Links

Times and Time Zones

All times are in EST time to prevent confusion due to time zone crossing. See the AIP5010 flight status page for this flight to view local times or setup timezone preferences in your user account.

Time Position Orientation Groundspeed Altitude Reporting Facility
EST Latitude Longitude Course Direction KTS MPH feet Rate Location/Type
Fri 01:46:59 AM 47.4494 -111.3436 126° Southeast 155 178 6,200  Level Salt Lake Center
Fri 01:47:59 AM 47.4214 -111.2861 126° Southeast 168 193 7,900 1,587 Climbing Salt Lake Center
Fri 01:49:00 AM 47.3883 -111.2275 130° Southeast 176 203 9,400 1,636 Climbing Salt Lake Center
Fri 01:50:00 AM 47.3467 -111.1567 131° Southeast 186 214 11,200 1,500 Climbing Salt Lake Center
Fri 01:51:00 AM 47.3117 -111.0994 132° Southeast 188 216 12,400 1,091 Climbing Salt Lake Center
Fri 01:52:01 AM 47.2775 -111.0383 129° Southeast 190 219 13,400 893 Climbing Salt Lake Center
Fri 01:53:01 AM 47.2419 -110.9739 129° Southeast 196 226 14,200 843 Climbing Salt Lake Center
Fri 01:54:02 AM 47.2039 -110.9081 130° Southeast 203 234 15,100 496 Climbing Salt Lake Center
Fri 01:55:02 AM 47.1636 -110.8383 130° Southeast 212 244 15,200  Climbing Salt Lake Center
Fri 01:56:03 AM 47.1206 -110.7617 130° Southeast 227 261 15,100 -50 Descending Salt Lake Center
Fri 01:57:03 AM 47.0769 -110.6842 130° Southeast 238 274 15,100  Level Salt Lake Center
Fri 01:58:03 AM 47.0336 -110.6067 129° Southeast 244 281 15,100  Level Salt Lake Center
Fri 01:59:05 AM 46.9906 -110.5325 130° Southeast 242 278 15,100 -49 Level Salt Lake Center
Fri 02:00:05 AM 46.9467 -110.4556 130° Southeast 244 281 15,000  Descending Salt Lake Center
Fri 02:01:06 AM 46.9036 -110.3800 130° Southeast 244 281 15,100 50 Climbing Salt Lake Center
Fri 02:02:06 AM 46.8589 -110.3039 131° Southeast 245 282 15,100 -100 Level Salt Lake Center
Fri 02:03:06 AM 46.8161 -110.2292 130° Southeast 242 278 14,900 -50 Descending Salt Lake Center
Fri 02:04:07 AM 46.7744 -110.1553 129° Southeast 238 274 15,000 50 Climbing Salt Lake Center
Fri 02:05:07 AM 46.7311 -110.0806 130° Southeast 240 276 15,000  Level Salt Lake Center
Fri 02:06:08 AM 46.6819 -109.9961 130° Southeast 241 277 15,000 50 Level Salt Lake Center
Fri 02:07:08 AM 46.6392 -109.9228 130° Southeast 240 276 15,100  Climbing Salt Lake Center
Fri 02:08:08 AM 46.5958 -109.8494 131° Southeast 239 275 15,000 -50 Descending Salt Lake Center
Fri 02:09:09 AM 46.5503 -109.7750 132° Southeast 235 270 15,000 50 Level Salt Lake Center
Fri 02:10:09 AM 46.5125 -109.7100 130° Southeast 229 264 15,100 50 Climbing Salt Lake Center
Fri 02:11:10 AM 46.4708 -109.6403 131° Southeast 229 264 15,100  Level Salt Lake Center
Fri 02:12:10 AM 46.4283 -109.5681 130° Southeast 233 268 15,100  Level Salt Lake Center
Fri 02:13:10 AM 46.3825 -109.4900 130° Southeast 237 273 15,100  Level Salt Lake Center
Fri 02:14:11 AM 46.3397 -109.4194 131° Southeast 236 272 15,100  Level Salt Lake Center
Fri 02:15:11 AM 46.2983 -109.3481 130° Southeast 235 270 15,100 -50 Level Salt Lake Center
Fri 02:16:11 AM 46.2564 -109.2767 130° Southeast 235 270 15,000 -248 Descending Salt Lake Center
Fri 02:17:12 AM 46.2128 -109.2036 131° Southeast 242 278 14,600 -744 Descending Salt Lake Center
Fri 02:18:12 AM 46.1619 -109.1194 131° Southeast 257 296 13,500 -1,050 Descending Salt Lake Center
Fri 02:19:12 AM 46.1178 -109.0386 128° Southeast 260 299 12,500 -992 Descending Salt Lake Center
Fri 02:20:13 AM 46.0772 -108.9533 124° Southeast 261 300 11,500 -1,091 Descending Salt Lake Center
Fri 02:21:13 AM 46.0356 -108.8717 126° Southeast 256 295 10,300 -1,140 Descending Salt Lake Center
Fri 02:22:14 AM 45.9950 -108.7958 128° Southeast 245 282 9,200 -1,190 Descending Salt Lake Center
Fri 02:23:14 AM 45.9539 -108.7200 128° Southeast 243 280 7,900 -1,300 Descending Salt Lake Center
Fri 02:24:14 AM 45.9061 -108.6389 130° Southeast 247 284 6,600 -1,041 Descending Salt Lake Center
Fri 02:25:15 AM 45.8647 -108.5703 131° Southeast 234 269 5,800 -744 Descending Salt Lake Center
Fri 02:26:15 AM 45.8328 -108.5044 125° Southeast 205 236 5,100 -595 Descending Salt Lake Center
Fri 02:27:16 AM 45.8056 -108.4744 142° Southeast 145 167 4,600 -694 Descending Salt Lake Center
Fri 02:28:16 AM 45.8017 -108.5164 262° West 118 136 3,700 -900 Descending Salt Lake Center
Fri 02:30:00 AM 45.8000 -108.5333 270° West  Level FlightAware Approximate

Login

Don't have an account? Register now (free) for customized features, flight alerts, and more!